sensor_id;sensor_type;location;lat;lon;timestamp;pressure;altitude;pressure_sealevel;temperature;humidity
10796;BME280;5450;42.994;23.372;2023-07-31T00:00:13;95939.31;;;22.48;100.00
10796;BME280;5450;42.994;23.372;2023-07-31T00:02:41;95936.53;;;22.38;100.00
10796;BME280;5450;42.994;23.372;2023-07-31T00:05:08;95960.53;;;22.55;100.00
10796;BME280;5450;42.994;23.372;2023-07-31T00:07:35;95941.50;;;22.51;100.00
10796;BME280;5450;42.994;23.372;2023-07-31T00:10:02;95936.22;;;22.56;100.00
10796;BME280;5450;42.994;23.372;2023-07-31T00:12:29;95945.53;;;22.54;100.00
10796;BME280;5450;42.994;23.372;2023-07-31T00:15:00;95858.50;;;21.65;100.00
10796;BME280;5450;42.994;23.372;2023-07-31T00:17:54;95950.84;;;22.27;100.00
10796;BME280;5450;42.994;23.372;2023-07-31T00:20:21;95948.16;;;22.27;100.00
10796;BME280;5450;42.994;23.372;2023-07-31T00:22:48;95948.22;;;22.32;100.00
10796;BME280;5450;42.994;23.372;2023-07-31T00:25:16;95944.66;;;22.27;100.00
10796;BME280;5450;42.994;23.372;2023-07-31T00:27:43;95932.09;;;22.27;100.00
10796;BME280;5450;42.994;23.372;2023-07-31T00:30:16;95917.97;;;22.32;100.00
10796;BME280;5450;42.994;23.372;2023-07-31T00:32:43;95913.94;;;22.29;100.00
10796;BME280;5450;42.994;23.372;2023-07-31T00:35:15;95907.47;;;22.25;100.00
10796;BME280;5450;42.994;23.372;2023-07-31T00:38:08;95905.78;;;22.19;100.00
10796;BME280;5450;42.994;23.372;2023-07-31T00:40:35;95912.81;;;22.25;100.00
10796;BME280;5450;42.994;23.372;2023-07-31T00:43:03;95922.41;;;22.21;100.00
10796;BME280;5450;42.994;23.372;2023-07-31T00:45:30;95867.06;;;21.83;100.00
10796;BME280;5450;42.994;23.372;2023-07-31T00:47:58;95935.03;;;22.04;100.00
10796;BME280;5450;42.994;23.372;2023-07-31T00:50:28;95796.78;;;20.95;100.00
10796;BME280;5450;42.994;23.372;2023-07-31T00:52:55;95916.34;;;21.71;100.00
10796;BME280;5450;42.994;23.372;2023-07-31T00:55:22;95911.84;;;21.55;100.00
10796;BME280;5450;42.994;23.372;2023-07-31T00:57:49;95908.44;;;21.43;100.00
10796;BME280;5450;42.994;23.372;2023-07-31T01:00:18;95914.25;;;21.40;100.00
10796;BME280;5450;42.994;23.372;2023-07-31T01:06:12;95897.84;;;21.48;100.00
10796;BME280;5450;42.994;23.372;2023-07-31T01:08:47;95905.84;;;21.48;100.00
10796;BME280;5450;42.994;23.372;2023-07-31T01:15:02;95917.03;;;21.45;100.00
10796;BME280;5450;42.994;23.372;2023-07-31T01:17:33;95911.50;;;21.51;100.00
10796;BME280;5450;42.994;23.372;2023-07-31T01:20:10;95887.09;;;21.26;100.00
10796;BME280;5450;42.994;23.372;2023-07-31T01:23:13;95925.13;;;21.33;100.00
10796;BME280;5450;42.994;23.372;2023-07-31T01:26:00;95938.88;;;21.08;100.00
10796;BME280;5450;42.994;23.372;2023-07-31T01:28:35;95922.94;;;21.13;100.00
10796;BME280;5450;42.994;23.372;2023-07-31T01:31:07;95927.63;;;21.23;100.00
10796;BME280;5450;42.994;23.372;2023-07-31T01:33:40;95827.66;;;20.41;100.00
10796;BME280;5450;42.994;23.372;2023-07-31T01:36:07;95920.75;;;21.10;100.00
10796;BME280;5450;42.994;23.372;2023-07-31T01:38:35;95925.03;;;21.11;100.00
10796;BME280;5450;42.994;23.372;2023-07-31T01:41:03;95926.41;;;21.14;100.00
10796;BME280;5450;42.994;23.372;2023-07-31T01:43:30;95926.81;;;21.23;100.00
10796;BME280;5450;42.994;23.372;2023-07-31T01:45:57;95927.22;;;21.14;100.00
10796;BME280;5450;42.994;23.372;2023-07-31T01:48:24;95931.59;;;21.21;100.00
10796;BME280;5450;42.994;23.372;2023-07-31T01:50:54;95929.00;;;21.26;100.00
10796;BME280;5450;42.994;23.372;2023-07-31T01:53:21;95896.84;;;20.87;100.00
10796;BME280;5450;42.994;23.372;2023-07-31T01:55:49;95929.25;;;21.07;100.00
10796;BME280;5450;42.994;23.372;2023-07-31T01:58:17;95915.53;;;20.87;100.00
10796;BME280;5450;42.994;23.372;2023-07-31T02:00:44;95934.78;;;20.89;100.00
10796;BME280;5450;42.994;23.372;2023-07-31T02:03:11;95932.06;;;20.73;100.00
10796;BME280;5450;42.994;23.372;2023-07-31T02:05:44;95933.13;;;20.72;100.00
10796;BME280;5450;42.994;23.372;2023-07-31T02:08:11;95928.94;;;20.76;100.00
10796;BME280;5450;42.994;23.372;2023-07-31T02:10:38;95912.75;;;20.66;100.00
10796;BME280;5450;42.994;23.372;2023-07-31T02:13:05;95916.97;;;20.78;100.00
10796;BME280;5450;42.994;23.372;2023-07-31T02:15:37;95919.06;;;20.76;100.00
10796;BME280;5450;42.994;23.372;2023-07-31T02:18:04;95912.09;;;20.75;100.00
10796;BME280;5450;42.994;23.372;2023-07-31T02:20:33;95916.97;;;20.78;100.00
10796;BME280;5450;42.994;23.372;2023-07-31T02:23:01;95913.91;;;20.86;100.00
10796;BME280;5450;42.994;23.372;2023-07-31T02:25:28;95860.06;;;20.61;100.00
10796;BME280;5450;42.994;23.372;2023-07-31T02:27:58;95905.88;;;20.86;100.00
10796;BME280;5450;42.994;23.372;2023-07-31T02:30:26;95911.78;;;20.88;100.00
10796;BME280;5450;42.994;23.372;2023-07-31T02:32:57;95917.63;;;20.85;100.00
10796;BME280;5450;42.994;23.372;2023-07-31T02:35:24;95868.38;;;20.48;100.00
10796;BME280;5450;42.994;23.372;2023-07-31T02:37:52;95927.75;;;20.83;100.00
10796;BME280;5450;42.994;23.372;2023-07-31T02:40:19;95935.09;;;20.76;100.00
10796;BME280;5450;42.994;23.372;2023-07-31T02:42:46;95941.47;;;20.75;100.00
10796;BME280;5450;42.994;23.372;2023-07-31T02:45:14;95942.19;;;20.71;100.00
10796;BME280;5450;42.994;23.372;2023-07-31T02:47:41;95943.81;;;20.72;100.00
10796;BME280;5450;42.994;23.372;2023-07-31T02:50:10;95942.03;;;20.77;100.00
10796;BME280;5450;42.994;23.372;2023-07-31T02:52:39;95944.47;;;20.79;100.00
10796;BME280;5450;42.994;23.372;2023-07-31T02:55:07;95953.28;;;20.79;100.00
10796;BME280;5450;42.994;23.372;2023-07-31T02:57:34;95882.53;;;20.20;100.00
10796;BME280;5450;42.994;23.372;2023-07-31T03:00:00;95948.72;;;20.91;100.00
10796;BME280;5450;42.994;23.372;2023-07-31T03:02:32;95951.94;;;20.93;100.00
10796;BME280;5450;42.994;23.372;2023-07-31T03:04:59;95953.56;;;20.94;100.00
10796;BME280;5450;42.994;23.372;2023-07-31T03:07:27;95929.50;;;20.78;100.00
10796;BME280;5450;42.994;23.372;2023-07-31T03:09:55;95955.47;;;21.10;100.00
10796;BME280;5450;42.994;23.372;2023-07-31T03:12:23;95931.97;;;20.96;100.00
10796;BME280;5450;42.994;23.372;2023-07-31T03:14:50;95950.03;;;21.05;100.00
10796;BME280;5450;42.994;23.372;2023-07-31T03:17:18;95970.91;;;20.92;100.00
10796;BME280;5450;42.994;23.372;2023-07-31T03:19:45;95965.69;;;20.85;100.00
10796;BME280;5450;42.994;23.372;2023-07-31T03:22:15;95958.91;;;20.94;100.00
10796;BME280;5450;42.994;23.372;2023-07-31T03:24:45;95961.19;;;21.02;100.00
10796;BME280;5450;42.994;23.372;2023-07-31T03:27:12;95961.50;;;20.89;100.00
10796;BME280;5450;42.994;23.372;2023-07-31T03:29:39;95979.22;;;20.67;100.00
10796;BME280;5450;42.994;23.372;2023-07-31T03:32:06;95959.47;;;20.68;100.00
10796;BME280;5450;42.994;23.372;2023-07-31T03:34:33;95962.25;;;20.73;100.00
10796;BME280;5450;42.994;23.372;2023-07-31T03:37:00;95968.84;;;20.82;100.00
10796;BME280;5450;42.994;23.372;2023-07-31T03:39:27;95972.19;;;20.89;100.00
10796;BME280;5450;42.994;23.372;2023-07-31T03:41:55;95946.91;;;20.80;100.00
10796;BME280;5450;42.994;23.372;2023-07-31T03:44:22;95969.13;;;20.97;100.00
10796;BME280;5450;42.994;23.372;2023-07-31T03:46:50;95970.25;;;21.01;100.00
10796;BME280;5450;42.994;23.372;2023-07-31T03:49:17;95969.13;;;20.97;100.00
10796;BME280;5450;42.994;23.372;2023-07-31T03:51:44;95958.41;;;20.81;100.00
10796;BME280;5450;42.994;23.372;2023-07-31T03:54:11;95935.16;;;20.53;100.00
10796;BME280;5450;42.994;23.372;2023-07-31T03:56:38;95980.09;;;20.84;100.00
10796;BME280;5450;42.994;23.372;2023-07-31T03:59:31;95985.13;;;20.97;100.00
10796;BME280;5450;42.994;23.372;2023-07-31T04:02:00;95991.75;;;20.95;100.00
10796;BME280;5450;42.994;23.372;2023-07-31T04:04:27;95986.41;;;20.95;100.00
10796;BME280;5450;42.994;23.372;2023-07-31T04:07:19;95984.00;;;20.93;100.00
10796;BME280;5450;42.994;23.372;2023-07-31T04:09:46;96001.56;;;20.89;100.00
10796;BME280;5450;42.994;23.372;2023-07-31T04:12:13;95985.44;;;20.84;100.00
10796;BME280;5450;42.994;23.372;2023-07-31T04:14:53;95988.19;;;20.89;100.00
10796;BME280;5450;42.994;23.372;2023-07-31T04:17:20;95978.91;;;20.92;100.00
10796;BME280;5450;42.994;23.372;2023-07-31T04:19:50;95979.94;;;20.91;100.00
10796;BME280;5450;42.994;23.372;2023-07-31T04:22:17;95974.84;;;20.89;100.00
10796;BME280;5450;42.994;23.372;2023-07-31T04:24:46;95916.47;;;20.25;100.00
10796;BME280;5450;42.994;23.372;2023-07-31T04:27:13;95986.41;;;20.95;100.00
10796;BME280;5450;42.994;23.372;2023-07-31T04:29:45;95984.31;;;20.97;100.00
10796;BME280;5450;42.994;23.372;2023-07-31T04:32:13;95974.34;;;21.04;100.00
10796;BME280;5450;42.994;23.372;2023-07-31T04:34:41;95980.00;;;21.07;100.00
10796;BME280;5450;42.994;23.372;2023-07-31T04:37:08;95996.69;;;21.14;100.00
10796;BME280;5450;42.994;23.372;2023-07-31T04:39:35;95980.50;;;21.21;100.00
10796;BME280;5450;42.994;23.372;2023-07-31T04:42:03;95976.81;;;21.22;100.00
10796;BME280;5450;42.994;23.372;2023-07-31T04:44:30;95985.03;;;21.21;100.00
10796;BME280;5450;42.994;23.372;2023-07-31T04:46:58;95976.31;;;21.25;100.00
10796;BME280;5450;42.994;23.372;2023-07-31T04:49:25;95978.16;;;21.25;100.00
10796;BME280;5450;42.994;23.372;2023-07-31T04:51:52;95970.63;;;21.22;100.00
10796;BME280;5450;42.994;23.372;2023-07-31T04:54:19;95932.69;;;20.91;100.00
10796;BME280;5450;42.994;23.372;2023-07-31T04:56:46;95956.53;;;21.09;100.00
10796;BME280;5450;42.994;23.372;2023-07-31T04:59:13;95967.56;;;21.30;100.00
10796;BME280;5450;42.994;23.372;2023-07-31T05:01:40;95910.25;;;20.92;100.00
10796;BME280;5450;42.994;23.372;2023-07-31T05:04:16;95919.94;;;21.10;100.00
10796;BME280;5450;42.994;23.372;2023-07-31T05:06:43;95968.94;;;21.49;100.00
10796;BME280;5450;42.994;23.372;2023-07-31T05:09:11;95924.94;;;21.40;100.00
10796;BME280;5450;42.994;23.372;2023-07-31T05:11:45;95945.75;;;21.71;100.00
10796;BME280;5450;42.994;23.372;2023-07-31T05:14:42;95949.25;;;21.88;100.00
10796;BME280;5450;42.994;23.372;2023-07-31T05:17:46;95958.78;;;22.01;100.00
10796;BME280;5450;42.994;23.372;2023-07-31T05:20:15;95959.09;;;22.04;100.00
10796;BME280;5450;42.994;23.372;2023-07-31T05:22:41;95958.75;;;22.17;100.00
10796;BME280;5450;42.994;23.372;2023-07-31T05:25:08;95952.69;;;22.27;100.00
10796;BME280;5450;42.994;23.372;2023-07-31T05:27:35;95911.13;;;22.19;100.00
10796;BME280;5450;42.994;23.372;2023-07-31T05:30:03;95951.66;;;22.49;100.00
10796;BME280;5450;42.994;23.372;2023-07-31T05:32:30;95984.09;;;22.53;100.00
10796;BME280;5450;42.994;23.372;2023-07-31T05:34:57;95925.75;;;22.33;100.00
10796;BME280;5450;42.994;23.372;2023-07-31T05:37:25;95948.84;;;22.61;100.00
10796;BME280;5450;42.994;23.372;2023-07-31T05:39:52;95949.00;;;22.54;100.00
10796;BME280;5450;42.994;23.372;2023-07-31T05:42:21;95944.09;;;22.46;100.00
10796;BME280;5450;42.994;23.372;2023-07-31T05:44:52;95958.19;;;22.37;100.00
10796;BME280;5450;42.994;23.372;2023-07-31T05:47:19;95953.03;;;22.30;100.00
10796;BME280;5450;42.994;23.372;2023-07-31T05:49:46;95931.47;;;22.20;100.00
10796;BME280;5450;42.994;23.372;2023-07-31T05:52:13;95898.75;;;21.92;100.00
10796;BME280;5450;42.994;23.372;2023-07-31T05:54:43;95960.94;;;22.63;100.00
10796;BME280;5450;42.994;23.372;2023-07-31T05:57:12;95960.00;;;22.75;100.00
10796;BME280;5450;42.994;23.372;2023-07-31T05:59:39;95953.19;;;22.89;100.00
10796;BME280;5450;42.994;23.372;2023-07-31T06:02:06;95954.59;;;22.96;100.00
10796;BME280;5450;42.994;23.372;2023-07-31T06:04:33;95823.41;;;22.26;100.00
10796;BME280;5450;42.994;23.372;2023-07-31T06:07:00;95968.91;;;23.33;100.00
10796;BME280;5450;42.994;23.372;2023-07-31T06:09:32;95974.13;;;23.45;100.00
10796;BME280;5450;42.994;23.372;2023-07-31T06:15:25;95866.97;;;22.97;100.00
10796;BME280;5450;42.994;23.372;2023-07-31T06:17:52;95971.22;;;23.88;100.00
10796;BME280;5450;42.994;23.372;2023-07-31T06:20:19;95952.75;;;23.97;100.00
10796;BME280;5450;42.994;23.372;2023-07-31T06:22:46;95978.94;;;24.22;100.00
10796;BME280;5450;42.994;23.372;2023-07-31T06:25:13;95970.97;;;24.32;100.00
10796;BME280;5450;42.994;23.372;2023-07-31T06:27:40;95955.63;;;24.27;100.00
10796;BME280;5450;42.994;23.372;2023-07-31T06:30:08;95980.75;;;24.58;100.00
10796;BME280;5450;42.994;23.372;2023-07-31T06:32:41;95977.09;;;24.79;100.00
10796;BME280;5450;42.994;23.372;2023-07-31T06:35:14;95981.16;;;25.02;100.00
10796;BME280;5450;42.994;23.372;2023-07-31T06:37:43;95955.38;;;25.01;100.00
10796;BME280;5450;42.994;23.372;2023-07-31T06:40:11;95982.31;;;25.31;100.00
10796;BME280;5450;42.994;23.372;2023-07-31T06:42:43;95963.25;;;25.42;100.00
10796;BME280;5450;42.994;23.372;2023-07-31T06:45:14;95968.38;;;25.64;100.00
10796;BME280;5450;42.994;23.372;2023-07-31T06:47:44;95873.91;;;25.15;100.00
10796;BME280;5450;42.994;23.372;2023-07-31T06:50:11;95943.84;;;25.76;99.47
10796;BME280;5450;42.994;23.372;2023-07-31T06:52:44;95975.59;;;25.99;96.30
10796;BME280;5450;42.994;23.372;2023-07-31T06:55:19;95966.16;;;26.06;95.93
10796;BME280;5450;42.994;23.372;2023-07-31T06:57:46;95941.66;;;26.13;92.12
10796;BME280;5450;42.994;23.372;2023-07-31T07:00:14;95953.44;;;26.32;91.33
10796;BME280;5450;42.994;23.372;2023-07-31T07:02:41;95900.47;;;26.07;93.12
10796;BME280;5450;42.994;23.372;2023-07-31T07:05:10;95942.97;;;26.30;93.31
10796;BME280;5450;42.994;23.372;2023-07-31T07:07:39;95971.22;;;26.33;91.03
10796;BME280;5450;42.994;23.372;2023-07-31T07:13:47;95974.41;;;26.50;89.07
10796;BME280;5450;42.994;23.372;2023-07-31T07:19:36;95929.59;;;26.74;81.80
10796;BME280;5450;42.994;23.372;2023-07-31T07:22:05;95987.69;;;27.00;84.06
10796;BME280;5450;42.994;23.372;2023-07-31T07:24:32;95970.41;;;27.07;86.09
10796;BME280;5450;42.994;23.372;2023-07-31T07:34:29;95959.53;;;27.17;85.02
10796;BME280;5450;42.994;23.372;2023-07-31T07:36:56;95969.81;;;27.10;82.45
10796;BME280;5450;42.994;23.372;2023-07-31T07:43:25;95961.16;;;27.18;85.69
10796;BME280;5450;42.994;23.372;2023-07-31T07:49:12;95970.13;;;27.47;85.19
10796;BME280;5450;42.994;23.372;2023-07-31T08:02:34;95964.59;;;27.67;75.80
10796;BME280;5450;42.994;23.372;2023-07-31T08:11:41;95947.53;;;27.71;70.74
10796;BME280;5450;42.994;23.372;2023-07-31T08:17:44;95974.06;;;27.93;70.12
10796;BME280;5450;42.994;23.372;2023-07-31T08:23:47;95964.84;;;27.99;66.11
10796;BME280;5450;42.994;23.372;2023-07-31T08:26:15;95971.13;;;28.18;66.03
10796;BME280;5450;42.994;23.372;2023-07-31T08:52:30;95954.72;;;27.14;63.06
10796;BME280;5450;42.994;23.372;2023-07-31T08:54:58;95953.44;;;27.40;60.67
10796;BME280;5450;42.994;23.372;2023-07-31T08:57:25;95954.31;;;27.69;62.49
10796;BME280;5450;42.994;23.372;2023-07-31T09:03:14;95935.72;;;27.29;62.03
10796;BME280;5450;42.994;23.372;2023-07-31T09:05:44;95852.03;;;26.56;61.24
10796;BME280;5450;42.994;23.372;2023-07-31T09:11:33;95972.03;;;27.80;60.79
10796;BME280;5450;42.994;23.372;2023-07-31T09:14:25;95959.06;;;28.11;62.96
10796;BME280;5450;42.994;23.372;2023-07-31T09:16:53;95963.63;;;28.15;65.72
10796;BME280;5450;42.994;23.372;2023-07-31T09:19:29;95966.69;;;28.32;60.80
10796;BME280;5450;42.994;23.372;2023-07-31T09:25:40;95968.16;;;27.91;63.27
10796;BME280;5450;42.994;23.372;2023-07-31T09:38:24;95915.03;;;27.53;70.31
10796;BME280;5450;42.994;23.372;2023-07-31T09:44:13;95873.91;;;27.37;65.11
10796;BME280;5450;42.994;23.372;2023-07-31T09:46:40;95912.78;;;27.65;65.68
10796;BME280;5450;42.994;23.372;2023-07-31T09:49:08;95820.75;;;26.99;68.84
10796;BME280;5450;42.994;23.372;2023-07-31T09:51:36;95918.72;;;27.62;68.06
10796;BME280;5450;42.994;23.372;2023-07-31T09:54:13;95928.44;;;27.63;66.35
10796;BME280;5450;42.994;23.372;2023-07-31T09:56:47;95920.28;;;27.68;64.38
10796;BME280;5450;42.994;23.372;2023-07-31T10:10:01;95938.63;;;27.71;64.84
10796;BME280;5450;42.994;23.372;2023-07-31T10:26:47;95927.66;;;27.91;65.02
10796;BME280;5450;42.994;23.372;2023-07-31T10:29:17;95930.28;;;27.96;62.92
10796;BME280;5450;42.994;23.372;2023-07-31T10:32:02;95805.38;;;27.04;64.91
10796;BME280;5450;42.994;23.372;2023-07-31T10:45:03;95858.34;;;27.24;70.34
10796;BME280;5450;42.994;23.372;2023-07-31T10:47:44;95812.44;;;26.95;66.13
10796;BME280;5450;42.994;23.372;2023-07-31T10:54:11;95899.84;;;27.62;63.87
10796;BME280;5450;42.994;23.372;2023-07-31T10:57:19;95922.31;;;27.81;65.66
10796;BME280;5450;42.994;23.372;2023-07-31T10:59:49;95777.38;;;26.95;69.80
10796;BME280;5450;42.994;23.372;2023-07-31T11:06:04;95804.22;;;27.11;65.73
10796;BME280;5450;42.994;23.372;2023-07-31T11:08:32;95782.50;;;26.97;67.56
10796;BME280;5450;42.994;23.372;2023-07-31T11:17:52;95931.41;;;27.90;63.41
10796;BME280;5450;42.994;23.372;2023-07-31T11:31:23;95878.31;;;28.09;61.56
10796;BME280;5450;42.994;23.372;2023-07-31T11:34:07;95815.31;;;27.38;60.32
10796;BME280;5450;42.994;23.372;2023-07-31T11:43:58;95900.88;;;27.66;63.45
10796;BME280;5450;42.994;23.372;2023-07-31T11:46:28;95903.91;;;27.59;65.54
10796;BME280;5450;42.994;23.372;2023-07-31T11:48:59;95895.78;;;27.64;65.58
10796;BME280;5450;42.994;23.372;2023-07-31T11:51:27;95897.13;;;27.62;65.43
10796;BME280;5450;42.994;23.372;2023-07-31T12:01:19;95899.31;;;27.60;67.16
10796;BME280;5450;42.994;23.372;2023-07-31T12:03:49;95886.59;;;27.65;67.66
10796;BME280;5450;42.994;23.372;2023-07-31T12:21:50;95871.84;;;27.19;71.58
10796;BME280;5450;42.994;23.372;2023-07-31T12:24:18;95864.59;;;27.15;69.90
10796;BME280;5450;42.994;23.372;2023-07-31T12:27:11;95880.47;;;27.21;69.56
10796;BME280;5450;42.994;23.372;2023-07-31T12:33:19;95838.09;;;26.88;71.20
10796;BME280;5450;42.994;23.372;2023-07-31T12:39:29;95860.16;;;26.95;72.59
10796;BME280;5450;42.994;23.372;2023-07-31T12:45:38;95875.41;;;27.15;73.31
10796;BME280;5450;42.994;23.372;2023-07-31T12:48:05;95877.00;;;27.16;71.66
10796;BME280;5450;42.994;23.372;2023-07-31T12:54:15;95855.88;;;27.28;70.83
10796;BME280;5450;42.994;23.372;2023-07-31T12:56:45;95866.63;;;27.33;70.99
10796;BME280;5450;42.994;23.372;2023-07-31T12:59:13;95856.06;;;27.41;67.51
10796;BME280;5450;42.994;23.372;2023-07-31T13:05:21;95825.56;;;27.07;74.63
10796;BME280;5450;42.994;23.372;2023-07-31T13:07:49;95848.84;;;27.27;70.06
10796;BME280;5450;42.994;23.372;2023-07-31T13:10:19;95853.16;;;27.28;72.39
10796;BME280;5450;42.994;23.372;2023-07-31T13:12:51;95840.63;;;27.13;69.28
10796;BME280;5450;42.994;23.372;2023-07-31T13:15:18;95788.69;;;26.97;69.86
10796;BME280;5450;42.994;23.372;2023-07-31T13:17:45;95847.44;;;27.39;68.63
10796;BME280;5450;42.994;23.372;2023-07-31T13:20:15;95835.59;;;27.35;66.41
10796;BME280;5450;42.994;23.372;2023-07-31T13:22:42;95856.78;;;27.47;68.14
10796;BME280;5450;42.994;23.372;2023-07-31T13:28:52;95826.16;;;27.61;68.85
10796;BME280;5450;42.994;23.372;2023-07-31T13:35:00;95834.78;;;27.63;68.53
10796;BME280;5450;42.994;23.372;2023-07-31T13:44:52;95832.69;;;27.55;66.53
10796;BME280;5450;42.994;23.372;2023-07-31T13:54:19;95815.88;;;27.35;65.12
10796;BME280;5450;42.994;23.372;2023-07-31T14:00:35;95835.78;;;27.44;66.75
10796;BME280;5450;42.994;23.372;2023-07-31T14:03:02;95819.13;;;27.37;68.85
10796;BME280;5450;42.994;23.372;2023-07-31T14:12:52;95833.31;;;27.47;67.31
10796;BME280;5450;42.994;23.372;2023-07-31T14:15:45;95826.81;;;27.48;62.12
10796;BME280;5450;42.994;23.372;2023-07-31T14:18:12;95821.53;;;27.38;61.40
10796;BME280;5450;42.994;23.372;2023-07-31T14:23:56;95841.22;;;27.34;65.64
10796;BME280;5450;42.994;23.372;2023-07-31T14:26:23;95773.06;;;26.94;63.03
10796;BME280;5450;42.994;23.372;2023-07-31T14:28:50;95740.72;;;26.61;62.07
10796;BME280;5450;42.994;23.372;2023-07-31T14:38:17;95846.16;;;27.27;65.62
10796;BME280;5450;42.994;23.372;2023-07-31T14:40:44;95758.75;;;26.65;67.74
10796;BME280;5450;42.994;23.372;2023-07-31T14:46:31;95829.97;;;27.27;65.33
10796;BME280;5450;42.994;23.372;2023-07-31T14:49:00;95816.53;;;27.22;65.28
10796;BME280;5450;42.994;23.372;2023-07-31T15:01:48;95859.22;;;27.15;66.68
10796;BME280;5450;42.994;23.372;2023-07-31T15:04:18;95821.66;;;26.89;65.81
10796;BME280;5450;42.994;23.372;2023-07-31T15:06:49;95825.41;;;26.93;66.37
10796;BME280;5450;42.994;23.372;2023-07-31T15:16:39;95821.66;;;26.89;66.41
10796;BME280;5450;42.994;23.372;2023-07-31T15:33:03;95854.53;;;26.91;65.68
10796;BME280;5450;42.994;23.372;2023-07-31T15:42:53;95837.50;;;26.57;67.95
10796;BME280;5450;42.994;23.372;2023-07-31T15:45:21;95827.34;;;26.44;67.64
10796;BME280;5450;42.994;23.372;2023-07-31T15:51:30;95852.03;;;26.56;68.12
10796;BME280;5450;42.994;23.372;2023-07-31T15:57:14;95865.28;;;26.48;68.07
10796;BME280;5450;42.994;23.372;2023-07-31T16:00:07;95867.75;;;26.39;68.14
10796;BME280;5450;42.994;23.372;2023-07-31T16:02:39;95847.34;;;26.28;66.85
10796;BME280;5450;42.994;23.372;2023-07-31T16:05:07;95864.84;;;26.30;68.37
10796;BME280;5450;42.994;23.372;2023-07-31T16:07:40;95866.72;;;26.25;68.01
10796;BME280;5450;42.994;23.372;2023-07-31T16:10:09;95856.53;;;26.17;67.68
10796;BME280;5450;42.994;23.372;2023-07-31T16:16:17;95862.47;;;26.19;70.72
10796;BME280;5450;42.994;23.372;2023-07-31T16:18:50;95851.69;;;26.19;70.33
10796;BME280;5450;42.994;23.372;2023-07-31T16:28:36;95880.78;;;26.17;70.05
10796;BME280;5450;42.994;23.372;2023-07-31T16:37:42;95844.81;;;25.78;73.54
10796;BME280;5450;42.994;23.372;2023-07-31T16:40:12;95865.75;;;25.91;72.25
10796;BME280;5450;42.994;23.372;2023-07-31T16:53:30;95840.81;;;25.65;71.27
10796;BME280;5450;42.994;23.372;2023-07-31T16:59:40;95859.13;;;25.53;75.67
10796;BME280;5450;42.994;23.372;2023-07-31T17:09:30;95901.88;;;25.39;79.08
10796;BME280;5450;42.994;23.372;2023-07-31T17:12:00;95907.81;;;25.26;81.87
10796;BME280;5450;42.994;23.372;2023-07-31T17:14:33;95901.88;;;25.19;83.49
10796;BME280;5450;42.994;23.372;2023-07-31T17:17:06;95911.28;;;25.02;85.03
10796;BME280;5450;42.994;23.372;2023-07-31T17:19:33;95907.50;;;24.88;86.94
10796;BME280;5450;42.994;23.372;2023-07-31T17:22:05;95908.81;;;24.80;86.70
10796;BME280;5450;42.994;23.372;2023-07-31T17:24:37;95891.03;;;24.69;86.29
10796;BME280;5450;42.994;23.372;2023-07-31T17:31:11;95909.31;;;24.62;89.59
10796;BME280;5450;42.994;23.372;2023-07-31T17:37:19;95905.91;;;24.15;92.17
10796;BME280;5450;42.994;23.372;2023-07-31T17:39:49;95923.50;;;24.00;92.25
10796;BME280;5450;42.994;23.372;2023-07-31T17:42:19;95910.84;;;23.91;93.50
10796;BME280;5450;42.994;23.372;2023-07-31T17:44:49;95919.59;;;23.76;93.44
10796;BME280;5450;42.994;23.372;2023-07-31T17:50:58;95925.50;;;23.73;93.74
10796;BME280;5450;42.994;23.372;2023-07-31T17:57:08;95926.28;;;23.74;94.27
10796;BME280;5450;42.994;23.372;2023-07-31T17:59:36;95936.25;;;23.73;94.44
10796;BME280;5450;42.994;23.372;2023-07-31T18:02:03;95935.06;;;23.59;94.51
10796;BME280;5450;42.994;23.372;2023-07-31T18:08:11;95940.63;;;23.53;95.15
10796;BME280;5450;42.994;23.372;2023-07-31T18:14:19;95937.75;;;23.27;96.00
10796;BME280;5450;42.994;23.372;2023-07-31T18:17:20;95943.81;;;23.18;97.50
10796;BME280;5450;42.994;23.372;2023-07-31T18:23:32;95950.09;;;22.75;99.70
10796;BME280;5450;42.994;23.372;2023-07-31T18:29:24;95961.47;;;22.22;100.00
10796;BME280;5450;42.994;23.372;2023-07-31T18:31:53;95966.44;;;22.35;100.00
10796;BME280;5450;42.994;23.372;2023-07-31T18:34:24;95968.66;;;22.38;100.00
10796;BME280;5450;42.994;23.372;2023-07-31T18:36:53;95980.41;;;22.37;100.00
10796;BME280;5450;42.994;23.372;2023-07-31T18:39:45;95986.66;;;22.43;100.00
10796;BME280;5450;42.994;23.372;2023-07-31T18:42:37;95987.47;;;22.43;100.00
10796;BME280;5450;42.994;23.372;2023-07-31T18:45:09;95980.19;;;22.22;100.00
10796;BME280;5450;42.994;23.372;2023-07-31T18:48:01;95996.88;;;22.08;100.00
10796;BME280;5450;42.994;23.372;2023-07-31T18:50:29;95872.41;;;21.12;100.00
10796;BME280;5450;42.994;23.372;2023-07-31T18:56:37;96011.16;;;21.80;100.00
10796;BME280;5450;42.994;23.372;2023-07-31T19:02:24;96013.25;;;21.45;100.00
10796;BME280;5450;42.994;23.372;2023-07-31T19:04:55;96009.69;;;21.56;100.00
10796;BME280;5450;42.994;23.372;2023-07-31T19:07:49;96016.69;;;21.57;100.00
10796;BME280;5450;42.994;23.372;2023-07-31T19:10:17;96006.31;;;21.44;100.00
10796;BME280;5450;42.994;23.372;2023-07-31T19:16:32;96024.28;;;21.65;100.00
10796;BME280;5450;42.994;23.372;2023-07-31T19:19:03;96027.38;;;21.57;100.00
10796;BME280;5450;42.994;23.372;2023-07-31T19:21:34;96025.88;;;21.49;100.00
10796;BME280;5450;42.994;23.372;2023-07-31T19:24:01;96020.84;;;21.53;100.00
10796;BME280;5450;42.994;23.372;2023-07-31T19:26:31;96019.25;;;21.52;100.00
10796;BME280;5450;42.994;23.372;2023-07-31T19:29:03;96014.38;;;21.49;100.00
10796;BME280;5450;42.994;23.372;2023-07-31T19:31:32;96027.84;;;21.54;100.00
10796;BME280;5450;42.994;23.372;2023-07-31T19:34:05;96032.00;;;21.33;100.00
10796;BME280;5450;42.994;23.372;2023-07-31T19:36:33;96027.16;;;21.13;100.00